Time;durP1;ratioP1;P1;durP2;ratioP2;P2;SDS_P1;SDS_P2;PMS_P1;PMS_P2;Temp;Humidity;BMP_temperature;BMP_pressure;BME280_temperature;BME280_humidity;BME280_pressure;Samples;Min_cycle;Max_cycle;Signal;HPM_P1;HPM_P2
2023/04/24 00:02:26;;;;;;;2.13;1.53;;;;;;;;;;5036858;28;20275;-58
2023/04/24 00:04:52;;;;;;;1.90;1.80;;;;;;;;;;5065847;28;20203;-58
2023/04/24 00:07:19;;;;;;;1.33;1.33;;;;;;;;;;5063802;28;20188;-58
2023/04/24 00:09:46;;;;;;;1.50;1.40;;;;;;;;;;5061479;28;20200;-58
2023/04/24 00:12:12;;;;;;;1.47;1.37;;;;;;;;;;5065716;28;20646;-58
2023/04/24 00:14:38;;;;;;;1.37;1.37;;;;;;;;;;5068312;28;20192;-58
2023/04/24 00:17:05;;;;;;;1.67;1.40;;;;;;;;;;5065064;28;20246;-58
2023/04/24 00:19:31;;;;;;;1.87;1.70;;;;;;;;;;5061697;28;20207;-58
2023/04/24 00:21:57;;;;;;;1.50;1.40;;;;;;;;;;5065050;28;20175;-58
2023/04/24 00:24:24;;;;;;;2.10;1.40;;;;;;;;;;5045619;28;20286;-58
2023/04/24 00:26:51;;;;;;;1.50;1.40;;;;;;;;;;5061006;28;20670;-58
2023/04/24 00:29:17;;;;;;;1.63;1.30;;;;;;;;;;5062064;28;20549;-58
2023/04/24 00:31:43;;;;;;;1.60;1.50;;;;;;;;;;5065911;28;20180;-58
2023/04/24 00:34:11;;;;;;;1.73;1.63;;;;;;;;;;5064809;28;20530;-58
2023/04/24 00:36:37;;;;;;;1.70;1.60;;;;;;;;;;5061893;28;20223;-58
2023/04/24 00:39:04;;;;;;;1.63;1.53;;;;;;;;;;5053817;28;20583;-58
2023/04/24 00:41:31;;;;;;;1.77;1.40;;;;;;;;;;5067618;28;20540;-58
2023/04/24 00:43:57;;;;;;;2.57;1.50;;;;;;;;;;5071043;28;20178;-58
2023/04/24 00:46:23;;;;;;;4.50;1.60;;;;;;;;;;5073752;28;20199;-58
2023/04/24 00:48:50;;;;;;;1.90;1.80;;;;;;;;;;5067282;28;20185;-58
2023/04/24 00:51:16;;;;;;;1.70;1.60;;;;;;;;;;5063114;28;20179;-58
2023/04/24 00:53:43;;;;;;;2.00;1.80;;;;;;;;;;5052116;28;20180;-58
2023/04/24 00:56:10;;;;;;;1.40;1.30;;;;;;;;;;5072674;28;20204;-58
2023/04/24 00:58:36;;;;;;;2.23;1.47;;;;;;;;;;5069339;28;20655;-58
2023/04/24 01:01:06;;;;;;;2.77;1.40;;;;;;;;;;5074875;28;20524;-58
2023/04/24 01:03:33;;;;;;;2.17;2.00;;;;;;;;;;5070944;28;20226;-58
2023/04/24 01:06:00;;;;;;;1.77;1.67;;;;;;;;;;5048327;28;20185;-58
2023/04/24 01:08:27;;;;;;;1.90;1.80;;;;;;;;;;5070478;28;20195;-58
2023/04/24 01:10:53;;;;;;;2.13;1.63;;;;;;;;;;5071951;28;20173;-58
2023/04/24 01:13:20;;;;;;;2.10;2.00;;;;;;;;;;5072525;28;20195;-58
2023/04/24 01:15:47;;;;;;;2.90;2.00;;;;;;;;;;5070257;28;20672;-57
2023/04/24 01:18:13;;;;;;;3.87;2.20;;;;;;;;;;5069558;28;20192;-58
2023/04/24 01:20:41;;;;;;;2.27;2.07;;;;;;;;;;5071083;28;20188;-58
2023/04/24 01:23:08;;;;;;;2.40;2.20;;;;;;;;;;5065736;28;20262;-58
2023/04/24 01:25:35;;;;;;;2.60;2.40;;;;;;;;;;5075082;28;20188;-58
2023/04/24 01:28:02;;;;;;;2.60;2.33;;;;;;;;;;5068426;28;20641;-58
2023/04/24 01:30:28;;;;;;;2.50;2.07;;;;;;;;;;5068627;28;20184;-58
2023/04/24 01:32:56;;;;;;;3.67;2.40;;;;;;;;;;5070799;28;20278;-58
2023/04/24 01:35:22;;;;;;;2.90;2.60;;;;;;;;;;5068599;28;20212;-58
2023/04/24 01:37:48;;;;;;;2.87;2.43;;;;;;;;;;5068325;28;20198;-58
2023/04/24 01:40:14;;;;;;;2.23;2.03;;;;;;;;;;5070439;28;20184;-58
2023/04/24 01:42:42;;;;;;;2.50;2.30;;;;;;;;;;5063942;28;20247;-58
2023/04/24 01:45:10;;;;;;;3.47;2.10;;;;;;;;;;5064738;28;20215;-58
2023/04/24 01:47:37;;;;;;;2.60;2.40;;;;;;;;;;5069454;28;20203;-58
2023/04/24 01:50:05;;;;;;;2.63;2.43;;;;;;;;;;5068595;28;20832;-58
2023/04/24 01:52:33;;;;;;;3.00;2.77;;;;;;;;;;5066810;28;20177;-57
2023/04/24 01:55:02;;;;;;;2.83;2.53;;;;;;;;;;5069060;28;20686;-58
2023/04/24 01:57:30;;;;;;;3.63;3.00;;;;;;;;;;5040531;28;20599;-58
2023/04/24 01:59:56;;;;;;;2.63;2.43;;;;;;;;;;5069148;28;20226;-58
2023/04/24 02:02:29;;;;;;;2.83;2.60;;;;;;;;;;5067626;28;20264;-58
2023/04/24 02:04:55;;;;;;;3.07;2.47;;;;;;;;;;5063846;28;20186;-58
2023/04/24 02:07:21;;;;;;;2.83;2.63;;;;;;;;;;5067627;28;20181;-58
2023/04/24 02:09:48;;;;;;;3.30;3.00;;;;;;;;;;5059755;28;20191;-58
2023/04/24 02:12:14;;;;;;;2.97;2.77;;;;;;;;;;5065850;28;20202;-58
2023/04/24 02:14:42;;;;;;;3.40;3.10;;;;;;;;;;5065510;28;20663;-58
2023/04/24 02:17:08;;;;;;;3.17;2.87;;;;;;;;;;5068497;28;20636;-58
2023/04/24 02:19:34;;;;;;;3.50;3.00;;;;;;;;;;5066173;28;20739;-58
2023/04/24 02:22:00;;;;;;;4.93;3.30;;;;;;;;;;5061341;28;20189;-58
2023/04/24 02:24:26;;;;;;;4.27;3.20;;;;;;;;;;5058683;28;20693;-58
2023/04/24 02:26:53;;;;;;;4.30;3.93;;;;;;;;;;5068348;28;20234;-58
2023/04/24 02:29:19;;;;;;;5.90;4.13;;;;;;;;;;5070737;28;20551;-58
2023/04/24 02:31:45;;;;;;;5.47;3.83;;;;;;;;;;5067269;28;20578;-58
2023/04/24 02:34:12;;;;;;;3.77;3.47;;;;;;;;;;5065884;28;20270;-58
2023/04/24 02:36:38;;;;;;;3.93;3.63;;;;;;;;;;5065772;28;20204;-58
2023/04/24 02:39:04;;;;;;;3.70;3.40;;;;;;;;;;5059758;28;20186;-57
2023/04/24 02:41:32;;;;;;;3.93;3.63;;;;;;;;;;5070574;28;20289;-57
2023/04/24 02:44:01;;;;;;;3.87;3.50;;;;;;;;;;5063592;28;20179;-58
2023/04/24 02:46:27;;;;;;;6.13;4.13;;;;;;;;;;5066589;28;20189;-58
2023/04/24 02:48:53;;;;;;;5.07;4.50;;;;;;;;;;5064276;28;20180;-58
2023/04/24 02:51:20;;;;;;;4.53;4.10;;;;;;;;;;5063672;28;20185;-58
2023/04/24 02:53:46;;;;;;;4.70;4.20;;;;;;;;;;5064444;28;20552;-58
2023/04/24 02:56:12;;;;;;;6.53;4.13;;;;;;;;;;5069203;28;20672;-57
2023/04/24 02:58:39;;;;;;;6.10;4.40;;;;;;;;;;5066084;28;20632;-58
2023/04/24 03:01:05;;;;;;;5.23;4.80;;;;;;;;;;5067754;28;20644;-58
2023/04/24 03:03:31;;;;;;;9.80;4.30;;;;;;;;;;5045187;28;20181;-57
2023/04/24 03:05:58;;;;;;;4.83;4.43;;;;;;;;;;5070473;28;20223;-57
2023/04/24 03:08:24;;;;;;;6.63;4.77;;;;;;;;;;5057603;28;20819;-58
2023/04/24 03:10:51;;;;;;;5.07;4.57;;;;;;;;;;5062111;28;20192;-58
2023/04/24 03:13:17;;;;;;;6.23;5.03;;;;;;;;;;5067369;28;20749;-57
2023/04/24 03:15:44;;;;;;;8.03;4.77;;;;;;;;;;5069403;28;20214;-57
2023/04/24 03:18:10;;;;;;;6.40;5.80;;;;;;;;;;5065178;28;20592;-57
2023/04/24 03:20:37;;;;;;;5.63;4.80;;;;;;;;;;5068526;28;20180;-58
2023/04/24 03:23:03;;;;;;;6.10;4.60;;;;;;;;;;5062006;28;20291;-57
2023/04/24 03:25:29;;;;;;;6.67;5.03;;;;;;;;;;5064317;28;20184;-57
2023/04/24 03:27:56;;;;;;;5.30;4.80;;;;;;;;;;5065047;28;20713;-57
2023/04/24 03:30:22;;;;;;;6.20;5.30;;;;;;;;;;5062548;28;20208;-58
2023/04/24 03:32:48;;;;;;;5.03;4.50;;;;;;;;;;5057660;28;20544;-57
2023/04/24 03:35:15;;;;;;;6.77;5.00;;;;;;;;;;5063921;28;20664;-57
2023/04/24 03:37:41;;;;;;;6.20;5.47;;;;;;;;;;5063195;28;20271;-58
2023/04/24 03:40:08;;;;;;;7.70;6.00;;;;;;;;;;5063560;28;20656;-57
2023/04/24 03:42:34;;;;;;;5.70;5.03;;;;;;;;;;5062912;28;20267;-58
2023/04/24 03:45:01;;;;;;;7.47;5.07;;;;;;;;;;5063050;28;21748;-58
2023/04/24 03:47:27;;;;;;;6.70;5.53;;;;;;;;;;5063404;28;20188;-57
2023/04/24 03:49:54;;;;;;;7.30;5.27;;;;;;;;;;5062609;28;20283;-57
2023/04/24 03:52:20;;;;;;;5.27;4.77;;;;;;;;;;5065709;28;20260;-58
2023/04/24 03:54:46;;;;;;;6.50;5.17;;;;;;;;;;5061332;28;20574;-57
2023/04/24 03:57:12;;;;;;;5.40;4.90;;;;;;;;;;5056414;28;20567;-58
2023/04/24 03:59:39;;;;;;;6.73;5.70;;;;;;;;;;5063418;28;20604;-58
2023/04/24 04:02:05;;;;;;;5.93;5.30;;;;;;;;;;5058694;28;20191;-57
2023/04/24 04:04:31;;;;;;;5.73;5.13;;;;;;;;;;5061926;28;20234;-57
2023/04/24 04:07:01;;;;;;;5.50;5.00;;;;;;;;;;5061316;28;20234;-58
2023/04/24 04:09:27;;;;;;;8.23;5.63;;;;;;;;;;5065225;28;20181;-58
2023/04/24 04:11:54;;;;;;;9.73;6.00;;;;;;;;;;5062312;28;20244;-57
2023/04/24 04:14:21;;;;;;;6.97;5.97;;;;;;;;;;5061432;28;20246;-58
2023/04/24 04:16:48;;;;;;;7.77;5.83;;;;;;;;;;5066970;28;20254;-57
2023/04/24 04:19:14;;;;;;;7.67;5.00;;;;;;;;;;5063777;28;20180;-57
2023/04/24 04:21:41;;;;;;;5.50;4.87;;;;;;;;;;5058124;28;20176;-57
2023/04/24 04:24:07;;;;;;;6.53;5.43;;;;;;;;;;5042469;28;20605;-56
2023/04/24 04:26:33;;;;;;;7.77;6.03;;;;;;;;;;5057238;28;20193;-58
2023/04/24 04:29:00;;;;;;;6.57;5.47;;;;;;;;;;5062012;28;20189;-57
2023/04/24 04:31:26;;;;;;;6.93;5.00;;;;;;;;;;5061239;28;20215;-57
2023/04/24 04:33:53;;;;;;;5.57;4.90;;;;;;;;;;5059514;28;20242;-57
2023/04/24 04:36:19;;;;;;;6.53;5.40;;;;;;;;;;5065856;28;20269;-58
2023/04/24 04:38:45;;;;;;;8.00;5.10;;;;;;;;;;5059964;28;20242;-57
2023/04/24 04:41:11;;;;;;;6.33;5.63;;;;;;;;;;5061695;28;20223;-58
2023/04/24 04:43:39;;;;;;;7.40;5.50;;;;;;;;;;5062801;28;20248;-57
2023/04/24 04:46:05;;;;;;;7.47;5.20;;;;;;;;;;5061101;28;20211;-57
2023/04/24 04:48:31;;;;;;;6.93;4.87;;;;;;;;;;5061250;28;20540;-57
2023/04/24 04:50:58;;;;;;;5.33;4.83;;;;;;;;;;5064554;28;20184;-57
2023/04/24 04:53:25;;;;;;;7.73;4.87;;;;;;;;;;5058210;28;20184;-58
2023/04/24 04:55:52;;;;;;;6.97;4.83;;;;;;;;;;5065740;28;20223;-57
2023/04/24 04:58:18;;;;;;;6.30;5.17;;;;;;;;;;5062960;28;20181;-58
2023/04/24 05:00:44;;;;;;;7.27;5.40;;;;;;;;;;5054045;28;20235;-57
2023/04/24 05:03:11;;;;;;;9.50;5.27;;;;;;;;;;5059458;28;20247;-57
2023/04/24 05:05:40;;;;;;;6.03;5.03;;;;;;;;;;5063008;28;20193;-58
2023/04/24 05:08:08;;;;;;;6.17;4.80;;;;;;;;;;5048418;28;20189;-58
2023/04/24 05:10:36;;;;;;;7.30;5.00;;;;;;;;;;5064825;28;20208;-58
2023/04/24 05:13:03;;;;;;;6.33;5.73;;;;;;;;;;5064813;28;20262;-57
2023/04/24 05:15:30;;;;;;;6.82;6.20;;;;;;;;;;5058948;28;20425;-58
2023/04/24 05:17:56;;;;;;;6.53;5.33;;;;;;;;;;5057234;28;20202;-55
2023/04/24 05:20:23;;;;;;;5.33;4.83;;;;;;;;;;5061640;28;20200;-54
2023/04/24 05:22:49;;;;;;;7.77;5.33;;;;;;;;;;5065497;28;20176;-54
2023/04/24 05:25:15;;;;;;;6.20;5.30;;;;;;;;;;5067557;28;20230;-53
2023/04/24 05:27:42;;;;;;;5.90;5.30;;;;;;;;;;5065923;28;20718;-54
2023/04/24 05:30:09;;;;;;;5.20;4.70;;;;;;;;;;5064834;28;20251;-54
2023/04/24 05:32:35;;;;;;;5.63;4.63;;;;;;;;;;5064683;28;20188;-54
2023/04/24 05:35:02;;;;;;;5.93;5.43;;;;;;;;;;5046044;28;20637;-54
2023/04/24 05:37:28;;;;;;;6.30;5.00;;;;;;;;;;5062032;28;20250;-54
2023/04/24 05:39:55;;;;;;;5.57;4.73;;;;;;;;;;5068030;28;20264;-54
2023/04/24 05:42:21;;;;;;;5.00;4.53;;;;;;;;;;5068767;28;20660;-55
2023/04/24 05:44:47;;;;;;;5.93;4.50;;;;;;;;;;5065474;28;20164;-54
2023/04/24 05:47:13;;;;;;;5.13;4.63;;;;;;;;;;5066847;28;20187;-55
2023/04/24 05:49:40;;;;;;;5.73;5.13;;;;;;;;;;5045154;28;20513;-55
2023/04/24 05:52:08;;;;;;;4.70;4.30;;;;;;;;;;5069656;28;20188;-54
2023/04/24 05:54:34;;;;;;;5.33;4.93;;;;;;;;;;5067948;28;20208;-54
2023/04/24 05:57:04;;;;;;;4.50;4.10;;;;;;;;;;5072214;28;20227;-55
2023/04/24 05:59:30;;;;;;;5.43;4.93;;;;;;;;;;5081467;28;20172;-55
2023/04/24 06:01:56;;;;;;;4.20;3.80;;;;;;;;;;5064909;28;20172;-56
2023/04/24 06:04:23;;;;;;;5.23;4.73;;;;;;;;;;5060552;28;20195;-54
2023/04/24 06:06:50;;;;;;;4.20;3.80;;;;;;;;;;5068437;28;20188;-55
2023/04/24 06:09:17;;;;;;;5.47;4.50;;;;;;;;;;5072090;28;20660;-54
2023/04/24 06:11:44;;;;;;;5.23;4.30;;;;;;;;;;5065159;28;20204;-54
2023/04/24 06:14:10;;;;;;;4.60;4.20;;;;;;;;;;5069892;28;20176;-54
2023/04/24 06:16:38;;;;;;;5.07;4.57;;;;;;;;;;5077369;28;20691;-55
2023/04/24 06:19:05;;;;;;;5.60;4.13;;;;;;;;;;5066321;28;20164;-55
2023/04/24 06:21:31;;;;;;;5.57;4.60;;;;;;;;;;5073635;28;20184;-54
2023/04/24 06:23:58;;;;;;;4.93;4.50;;;;;;;;;;5067827;28;20212;-55
2023/04/24 06:26:26;;;;;;;4.67;4.13;;;;;;;;;;5081127;28;20654;-55
2023/04/24 06:28:56;;;;;;;5.37;4.47;;;;;;;;;;5068856;28;20176;-54
2023/04/24 06:31:22;;;;;;;4.13;3.73;;;;;;;;;;5068669;28;20175;-54
2023/04/24 06:33:49;;;;;;;6.73;4.40;;;;;;;;;;5071375;28;20191;-54
2023/04/24 06:36:16;;;;;;;5.30;4.53;;;;;;;;;;5080652;28;20216;-54
2023/04/24 06:38:42;;;;;;;4.57;3.97;;;;;;;;;;5062346;28;20191;-54
2023/04/24 06:41:09;;;;;;;4.20;3.80;;;;;;;;;;5054174;28;20169;-53
2023/04/24 06:43:35;;;;;;;4.17;3.77;;;;;;;;;;5067178;28;20176;-53
2023/04/24 06:46:03;;;;;;;4.73;4.33;;;;;;;;;;5069416;28;20407;-54
2023/04/24 06:48:29;;;;;;;3.83;3.43;;;;;;;;;;5066608;28;20189;-54
2023/04/24 06:50:56;;;;;;;4.50;3.47;;;;;;;;;;5086751;28;20283;-54
2023/04/24 06:53:22;;;;;;;4.23;3.87;;;;;;;;;;5060346;28;20280;-55
2023/04/24 06:55:50;;;;;;;3.50;3.20;;;;;;;;;;5079929;28;20603;-55
2023/04/24 06:58:16;;;;;;;3.70;3.40;;;;;;;;;;5074063;28;20231;-55
2023/04/24 07:00:42;;;;;;;5.60;3.67;;;;;;;;;;5066605;28;20178;-55
2023/04/24 07:03:09;;;;;;;3.00;2.77;;;;;;;;;;5067405;28;20178;-55
2023/04/24 07:05:38;;;;;;;3.27;2.97;;;;;;;;;;5061538;28;20239;-55
2023/04/24 07:08:04;;;;;;;4.20;3.30;;;;;;;;;;5068520;28;20628;-55
2023/04/24 07:10:30;;;;;;;3.40;3.10;;;;;;;;;;5048342;28;20294;-55
2023/04/24 07:12:56;;;;;;;3.07;2.80;;;;;;;;;;5066056;28;20395;-55
2023/04/24 07:15:23;;;;;;;3.47;2.63;;;;;;;;;;5064153;28;20192;-54
2023/04/24 07:17:50;;;;;;;3.17;2.97;;;;;;;;;;5064919;28;20680;-53
2023/04/24 07:20:17;;;;;;;3.20;2.90;;;;;;;;;;5068177;28;20548;-53
2023/04/24 07:22:43;;;;;;;3.47;2.87;;;;;;;;;;5067354;28;20708;-56
2023/04/24 07:25:10;;;;;;;3.70;2.50;;;;;;;;;;5069627;28;20599;-54
2023/04/24 07:27:38;;;;;;;2.77;2.23;;;;;;;;;;5069353;28;20226;-54
2023/04/24 07:30:05;;;;;;;2.60;2.40;;;;;;;;;;5066987;28;20210;-54
2023/04/24 07:32:31;;;;;;;2.43;2.23;;;;;;;;;;5060494;28;20176;-55
2023/04/24 07:34:58;;;;;;;2.17;1.87;;;;;;;;;;5051354;28;20837;-54
2023/04/24 07:37:25;;;;;;;2.00;1.90;;;;;;;;;;5070170;28;20565;-54
2023/04/24 07:39:51;;;;;;;1.83;1.73;;;;;;;;;;5061071;28;20176;-54
2023/04/24 07:42:17;;;;;;;1.33;1.23;;;;;;;;;;5056185;28;21127;-54
2023/04/24 07:44:44;;;;;;;1.50;1.40;;;;;;;;;;5058167;28;20593;-54
2023/04/24 07:47:10;;;;;;;1.50;1.40;;;;;;;;;;5059474;28;20200;-54
2023/04/24 07:49:36;;;;;;;1.40;1.30;;;;;;;;;;5059567;28;20186;-55
2023/04/24 07:52:03;;;;;;;1.40;1.30;;;;;;;;;;5060139;28;20235;-52
2023/04/24 07:54:29;;;;;;;1.30;1.20;;;;;;;;;;5059529;28;20176;-54
2023/04/24 07:56:55;;;;;;;3.23;1.37;;;;;;;;;;5040119;28;20665;-55
2023/04/24 07:59:24;;;;;;;1.30;1.20;;;;;;;;;;5057829;28;20226;-55
2023/04/24 08:01:51;;;;;;;1.93;1.47;;;;;;;;;;5062366;28;20176;-54
2023/04/24 08:04:17;;;;;;;1.63;1.20;;;;;;;;;;5064458;28;20208;-54
2023/04/24 08:06:44;;;;;;;1.20;1.20;;;;;;;;;;5066790;28;20537;-54
2023/04/24 08:09:11;;;;;;;1.10;1.10;;;;;;;;;;5071368;28;20181;-54
2023/04/24 08:11:37;;;;;;;1.20;1.10;;;;;;;;;;5067201;28;20227;-54
2023/04/24 08:14:03;;;;;;;1.20;1.10;;;;;;;;;;5064620;28;20187;-53
2023/04/24 08:16:29;;;;;;;1.20;1.10;;;;;;;;;;5066980;28;20193;-54
2023/04/24 08:18:55;;;;;;;3.27;1.17;;;;;;;;;;5060592;28;20184;-54
2023/04/24 08:21:21;;;;;;;1.10;1.00;;;;;;;;;;5066685;28;20175;-54
2023/04/24 08:23:47;;;;;;;1.10;1.10;;;;;;;;;;5066185;28;20251;-54
2023/04/24 08:26:14;;;;;;;1.53;1.43;;;;;;;;;;5066487;28;20582;-55
2023/04/24 08:28:40;;;;;;;1.93;1.40;;;;;;;;;;5060146;28;20211;-54
2023/04/24 08:31:06;;;;;;;1.37;1.30;;;;;;;;;;5067293;28;20188;-54
2023/04/24 08:33:34;;;;;;;2.87;2.10;;;;;;;;;;5063565;28;20536;-54
2023/04/24 08:36:04;;;;;;;1.77;1.60;;;;;;;;;;5067327;28;20745;-55
2023/04/24 08:38:31;;;;;;;2.57;1.70;;;;;;;;;;5046073;28;20179;-55
2023/04/24 08:40:59;;;;;;;2.30;1.77;;;;;;;;;;5048022;28;20185;-54
2023/04/24 08:43:26;;;;;;;1.93;1.63;;;;;;;;;;5060517;28;20172;-55
2023/04/24 08:45:52;;;;;;;2.10;1.67;;;;;;;;;;5061814;28;20870;-55
2023/04/24 08:48:19;;;;;;;2.60;1.60;;;;;;;;;;5065883;28;20208;-55
2023/04/24 08:50:45;;;;;;;1.50;1.40;;;;;;;;;;5069966;28;20644;-56
2023/04/24 08:53:11;;;;;;;1.60;1.50;;;;;;;;;;5055377;28;20187;-54
2023/04/24 08:55:38;;;;;;;1.70;1.60;;;;;;;;;;5064076;28;20176;-54
2023/04/24 08:58:05;;;;;;;2.03;1.70;;;;;;;;;;5062346;28;20177;-55
2023/04/24 09:00:31;;;;;;;1.80;1.60;;;;;;;;;;5067083;28;20277;-54
2023/04/24 09:02:57;;;;;;;1.63;1.53;;;;;;;;;;5067720;28;20181;-55
2023/04/24 09:05:24;;;;;;;1.53;1.43;;;;;;;;;;5070499;28;20180;-54
2023/04/24 09:07:54;;;;;;;2.07;1.70;;;;;;;;;;5066974;28;20204;-55
2023/04/24 09:10:21;;;;;;;2.67;1.77;;;;;;;;;;5058147;28;20193;-55
2023/04/24 09:12:47;;;;;;;2.10;1.90;;;;;;;;;;5064338;28;20654;-54
2023/04/24 09:15:13;;;;;;;6.67;2.00;;;;;;;;;;5065097;28;20192;-55
2023/04/24 09:17:40;;;;;;;2.63;2.10;;;;;;;;;;5064434;28;20189;-54
2023/04/24 09:20:07;;;;;;;2.90;2.53;;;;;;;;;;5050049;28;20180;-56
2023/04/24 09:22:33;;;;;;;3.67;2.90;;;;;;;;;;5067940;28;20522;-55
2023/04/24 09:25:03;;;;;;;4.23;2.90;;;;;;;;;;5071764;28;20257;-56
2023/04/24 09:27:30;;;;;;;2.87;2.67;;;;;;;;;;5064647;28;20242;-56
2023/04/24 09:29:59;;;;;;;3.27;2.57;;;;;;;;;;5069323;28;20561;-56
2023/04/24 09:32:25;;;;;;;3.27;2.90;;;;;;;;;;5064274;28;20245;-55
2023/04/24 09:35:10;;;;;;;2.93;2.60;;;;;;;;;;5065712;28;20177;-55
2023/04/24 09:37:37;;;;;;;4.63;2.90;;;;;;;;;;5067109;28;20197;-56
2023/04/24 09:40:17;;;;;;;3.83;3.17;;;;;;;;;;5062751;28;20176;-55
2023/04/24 09:42:47;;;;;;;4.33;3.07;;;;;;;;;;5065910;28;20226;-56
2023/04/24 09:45:13;;;;;;;4.00;3.03;;;;;;;;;;5070075;28;20226;-56
2023/04/24 09:47:40;;;;;;;5.83;3.07;;;;;;;;;;5062520;28;20222;-56
2023/04/24 09:50:10;;;;;;;4.10;3.70;;;;;;;;;;5073471;28;20799;-55
2023/04/24 09:52:37;;;;;;;4.13;3.30;;;;;;;;;;5067876;28;20169;-56
2023/04/24 09:55:10;;;;;;;4.20;3.80;;;;;;;;;;5069717;28;20183;-56
2023/04/24 09:57:47;;;;;;;4.27;3.17;;;;;;;;;;5069326;28;20192;-56
2023/04/24 10:00:13;;;;;;;4.17;3.27;;;;;;;;;;5066232;28;20177;-56
2023/04/24 10:02:40;;;;;;;7.00;3.50;;;;;;;;;;5048507;28;20180;-56
2023/04/24 10:05:07;;;;;;;5.33;3.93;;;;;;;;;;5049694;28;20652;-56
2023/04/24 10:07:34;;;;;;;4.27;3.70;;;;;;;;;;5068467;28;20184;-56
2023/04/24 10:10:01;;;;;;;4.90;3.63;;;;;;;;;;5064659;28;20515;-56
2023/04/24 10:12:28;;;;;;;4.97;3.50;;;;;;;;;;5062527;28;20561;-56
2023/04/24 10:14:55;;;;;;;7.67;3.97;;;;;;;;;;5060074;28;20612;-57
2023/04/24 10:17:21;;;;;;;5.63;3.20;;;;;;;;;;5063162;28;20298;-56
2023/04/24 10:19:48;;;;;;;4.87;4.33;;;;;;;;;;5067175;28;20697;-55
2023/04/24 10:22:16;;;;;;;4.30;3.33;;;;;;;;;;5059379;28;20632;-56
2023/04/24 10:24:43;;;;;;;9.50;3.67;;;;;;;;;;5063230;28;20231;-56
2023/04/24 10:27:09;;;;;;;3.30;2.87;;;;;;;;;;5059119;28;20643;-55
2023/04/24 10:29:36;;;;;;;7.80;3.30;;;;;;;;;;5068019;28;20184;-56
2023/04/24 10:32:02;;;;;;;6.60;2.90;;;;;;;;;;5066079;28;20245;-56
2023/04/24 10:34:28;;;;;;;6.50;3.20;;;;;;;;;;5061370;28;20185;-56
2023/04/24 10:36:55;;;;;;;3.80;3.27;;;;;;;;;;5064146;28;20196;-55
2023/04/24 10:39:22;;;;;;;5.60;3.33;;;;;;;;;;5060828;28;20289;-55
2023/04/24 10:41:49;;;;;;;6.40;3.33;;;;;;;;;;5064107;28;20204;-55
2023/04/24 10:44:16;;;;;;;4.73;3.47;;;;;;;;;;5068225;28;20183;-55
2023/04/24 10:46:50;;;;;;;4.30;3.00;;;;;;;;;;5070471;28;20203;-56
2023/04/24 10:49:16;;;;;;;7.60;4.10;;;;;;;;;;5059516;28;20642;-55
2023/04/24 10:51:46;;;;;;;6.27;3.77;;;;;;;;;;5063987;28;20180;-55
2023/04/24 10:54:26;;;;;;;5.27;3.30;;;;;;;;;;5063915;28;20282;-55
2023/04/24 10:56:52;;;;;;;5.30;3.00;;;;;;;;;;5058690;28;20222;-56
2023/04/24 10:59:28;;;;;;;6.07;3.07;;;;;;;;;;5066116;28;20234;-55
2023/04/24 11:01:55;;;;;;;8.63;3.33;;;;;;;;;;5072747;28;20644;-55
2023/04/24 11:04:34;;;;;;;7.63;3.33;;;;;;;;;;5063942;28;20199;-55
2023/04/24 11:07:00;;;;;;;8.23;3.20;;;;;;;;;;5065259;28;20187;-55
2023/04/24 11:09:28;;;;;;;8.23;3.33;;;;;;;;;;5069120;28;20185;-55
2023/04/24 11:12:04;;;;;;;4.03;3.00;;;;;;;;;;5064374;28;20222;-55
2023/04/24 11:14:30;;;;;;;5.23;3.50;;;;;;;;;;5062998;28;20214;-55
2023/04/24 11:16:56;;;;;;;6.37;4.27;;;;;;;;;;5067950;28;20200;-55
2023/04/24 11:19:24;;;;;;;8.53;4.00;;;;;;;;;;5062683;28;20166;-55
2023/04/24 11:22:03;;;;;;;7.33;3.63;;;;;;;;;;5074576;28;20596;-55
2023/04/24 11:24:37;;;;;;;7.47;4.27;;;;;;;;;;5077544;28;20219;-55
2023/04/24 11:27:07;;;;;;;7.50;4.00;;;;;;;;;;5071246;28;20203;-55
2023/04/24 11:29:44;;;;;;;4.33;3.33;;;;;;;;;;5066012;28;20180;-55
2023/04/24 11:32:19;;;;;;;5.80;3.27;;;;;;;;;;5060166;28;20169;-55
2023/04/24 11:34:51;;;;;;;8.20;4.60;;;;;;;;;;5058781;28;20420;-57
2023/04/24 11:37:18;;;;;;;3.90;3.17;;;;;;;;;;5066142;28;20205;-55
2023/04/24 11:39:44;;;;;;;7.27;3.50;;;;;;;;;;5081012;28;20164;-55
2023/04/24 11:42:10;;;;;;;4.83;3.10;;;;;;;;;;5067716;28;20183;-55
2023/04/24 11:44:37;;;;;;;7.03;3.43;;;;;;;;;;5066089;28;21309;-55
2023/04/24 11:47:09;;;;;;;7.43;3.13;;;;;;;;;;5067194;28;20416;-56
2023/04/24 11:49:38;;;;;;;3.70;3.20;;;;;;;;;;5067598;28;20187;-56
2023/04/24 11:52:04;;;;;;;5.50;3.30;;;;;;;;;;5071074;28;20840;-55
2023/04/24 11:54:31;;;;;;;4.03;3.37;;;;;;;;;;5063850;28;20666;-55
2023/04/24 11:56:57;;;;;;;4.43;2.80;;;;;;;;;;5068875;28;20518;-55
2023/04/24 11:59:24;;;;;;;6.37;3.70;;;;;;;;;;5078246;28;20624;-56
2023/04/24 12:01:50;;;;;;;5.63;3.03;;;;;;;;;;5066119;28;20183;-55
2023/04/24 12:04:17;;;;;;;8.40;3.63;;;;;;;;;;5066488;28;20176;-55
2023/04/24 12:07:03;;;;;;;3.60;3.03;;;;;;;;;;5068574;28;20184;-55
2023/04/24 12:09:29;;;;;;;5.87;3.37;;;;;;;;;;5074079;28;20176;-55
2023/04/24 12:11:57;;;;;;;3.50;3.20;;;;;;;;;;5061477;28;20981;-55
2023/04/24 12:14:24;;;;;;;3.57;2.40;;;;;;;;;;5061754;28;20225;-55
2023/04/24 12:16:53;;;;;;;3.47;2.57;;;;;;;;;;5058766;28;20204;-56
2023/04/24 12:19:21;;;;;;;4.27;2.53;;;;;;;;;;5061320;28;20565;-55
2023/04/24 12:21:59;;;;;;;3.60;2.73;;;;;;;;;;5072456;28;20675;-56
2023/04/24 12:24:25;;;;;;;3.03;2.40;;;;;;;;;;5064610;28;20224;-55
2023/04/24 12:26:51;;;;;;;3.50;2.10;;;;;;;;;;5064508;28;20644;-56
2023/04/24 12:29:21;;;;;;;4.80;2.07;;;;;;;;;;5076463;28;20267;-55
2023/04/24 12:31:47;;;;;;;3.07;2.10;;;;;;;;;;5066710;28;20275;-55
2023/04/24 12:34:20;;;;;;;3.27;2.10;;;;;;;;;;5067408;28;20666;-55
2023/04/24 12:36:47;;;;;;;2.20;1.83;;;;;;;;;;5080600;28;20214;-55
2023/04/24 12:39:23;;;;;;;3.90;2.50;;;;;;;;;;5087185;28;20179;-55
2023/04/24 12:42:00;;;;;;;2.63;1.97;;;;;;;;;;5066251;28;20173;-55
2023/04/24 12:44:34;;;;;;;4.23;2.33;;;;;;;;;;5055898;28;20176;-55
2023/04/24 12:47:04;;;;;;;3.17;1.80;;;;;;;;;;5065093;28;20184;-55
2023/04/24 12:49:31;;;;;;;3.27;2.20;;;;;;;;;;5076314;28;20720;-55
2023/04/24 12:51:57;;;;;;;2.40;2.13;;;;;;;;;;5082887;28;20168;-55
2023/04/24 12:54:24;;;;;;;2.83;2.00;;;;;;;;;;5069835;28;20204;-55
2023/04/24 12:56:50;;;;;;;2.63;1.60;;;;;;;;;;5070816;28;20203;-56
2023/04/24 12:59:17;;;;;;;2.30;1.70;;;;;;;;;;5062109;28;20177;-56
2023/04/24 13:01:43;;;;;;;2.93;1.77;;;;;;;;;;5065492;28;20180;-56
2023/04/24 13:04:10;;;;;;;3.13;1.80;;;;;;;;;;5045679;28;20212;-55
2023/04/24 13:06:36;;;;;;;4.50;2.07;;;;;;;;;;5071606;28;20176;-55
2023/04/24 13:09:03;;;;;;;3.23;1.77;;;;;;;;;;5068696;28;20180;-59
2023/04/24 13:11:29;;;;;;;3.93;1.93;;;;;;;;;;5054677;28;20197;-56
2023/04/24 13:13:56;;;;;;;3.20;1.80;;;;;;;;;;5063671;28;20254;-56
2023/04/24 13:16:23;;;;;;;4.33;2.20;;;;;;;;;;5063698;28;20203;-55
2023/04/24 13:18:49;;;;;;;4.40;1.90;;;;;;;;;;5074398;28;20266;-55
2023/04/24 13:21:16;;;;;;;2.23;1.60;;;;;;;;;;5061739;28;20188;-55
2023/04/24 13:23:42;;;;;;;2.27;1.67;;;;;;;;;;5073526;28;20231;-56
2023/04/24 13:26:09;;;;;;;4.07;2.17;;;;;;;;;;5071516;28;20675;-55
2023/04/24 13:28:36;;;;;;;1.93;1.73;;;;;;;;;;5059799;28;20590;-56
2023/04/24 13:31:02;;;;;;;1.67;1.47;;;;;;;;;;5055540;28;20228;-55
2023/04/24 13:33:28;;;;;;;3.90;1.80;;;;;;;;;;5065838;28;20188;-56
2023/04/24 13:35:55;;;;;;;5.10;1.70;;;;;;;;;;5057783;28;21711;-55
2023/04/24 13:38:23;;;;;;;4.77;1.77;;;;;;;;;;5060632;28;20242;-55
2023/04/24 13:40:49;;;;;;;1.70;1.60;;;;;;;;;;5063408;28;20255;-55
2023/04/24 13:43:16;;;;;;;1.70;1.60;;;;;;;;;;5065556;28;20211;-55
2023/04/24 13:45:42;;;;;;;2.40;1.37;;;;;;;;;;5063843;28;20176;-55
2023/04/24 13:48:09;;;;;;;3.57;1.70;;;;;;;;;;5059184;28;20314;-55
2023/04/24 13:50:36;;;;;;;2.97;1.30;;;;;;;;;;5066810;28;20173;-56
2023/04/24 13:53:03;;;;;;;2.10;1.53;;;;;;;;;;5060957;28;20226;-55
2023/04/24 13:55:29;;;;;;;2.10;1.43;;;;;;;;;;5074326;28;20176;-55
2023/04/24 13:57:56;;;;;;;3.43;1.83;;;;;;;;;;5065888;28;20722;-55
2023/04/24 14:00:22;;;;;;;3.93;2.00;;;;;;;;;;5058036;28;20168;-58
2023/04/24 14:02:48;;;;;;;3.53;1.30;;;;;;;;;;5059310;28;20292;-55
2023/04/24 14:05:27;;;;;;;2.50;1.60;;;;;;;;;;5064498;28;20204;-55
2023/04/24 14:07:53;;;;;;;2.93;1.23;;;;;;;;;;5065237;28;20172;-55
2023/04/24 14:10:20;;;;;;;2.07;1.43;;;;;;;;;;5066291;28;20200;-55
2023/04/24 14:12:46;;;;;;;1.47;1.33;;;;;;;;;;5064087;28;20204;-60
2023/04/24 14:15:13;;;;;;;1.60;1.50;;;;;;;;;;5067198;28;20184;-55
2023/04/24 14:17:40;;;;;;;2.40;1.47;;;;;;;;;;5066632;28;20202;-55
2023/04/24 14:20:06;;;;;;;2.60;1.70;;;;;;;;;;5064553;28;20215;-55
2023/04/24 14:22:33;;;;;;;1.87;1.40;;;;;;;;;;5070600;28;20241;-55
2023/04/24 14:24:59;;;;;;;2.47;1.43;;;;;;;;;;5068340;28;20737;-55
2023/04/24 14:27:27;;;;;;;1.53;1.33;;;;;;;;;;5067855;28;20185;-54
2023/04/24 14:29:54;;;;;;;2.87;1.43;;;;;;;;;;5057314;28;20550;-55
2023/04/24 14:32:21;;;;;;;2.87;1.50;;;;;;;;;;5067882;28;20719;-55
2023/04/24 14:34:48;;;;;;;1.40;1.30;;;;;;;;;;5068984;28;20185;-55
2023/04/24 14:37:14;;;;;;;1.83;1.30;;;;;;;;;;5061159;28;20203;-55
2023/04/24 14:39:41;;;;;;;1.57;1.40;;;;;;;;;;5066584;28;20173;-55
2023/04/24 14:42:07;;;;;;;2.13;1.30;;;;;;;;;;5069452;28;20200;-55
2023/04/24 14:44:34;;;;;;;2.37;1.87;;;;;;;;;;5067860;28;20177;-55